Daet, Philippines
Current Conditions -  °F | °C
As of 11:00 AM on Sunday 25 Jan 2015 (Local Time) from RPLL Reporting Station
Scattered Clouds Scattered Clouds  
Wind Chill: 81°   Ceiling: Unl
Heat Index: 83°   Visibility: 6mi
Dew Point: 68°   Wind: 7mph
Humidity: 65%   Direction: 290°WNW
Pressure: 30.03"   Gusts: NA
Location:  14.12°N, 122.96°E
Report Text: RPLL 250300Z 29006KT 240V010 9999 FEW025 SCT100 27/20 Q1017 NOSIG RMK A3003
Loading
Personal Weather Stations






























Interactive Weather Map New forecast layout! Learn more

10-Day Weather Forecast

Advertisements
Track Severe Weather on mobile